sensor_id;sensor_type;location;lat;lon;timestamp;P1;durP1;ratioP1;P2;durP2;ratioP2
34647;SDS011;20858;53.622;9.802;2022-09-23T00:00:38;3.38;;;1.13;;
34647;SDS011;20858;53.622;9.802;2022-09-23T00:03:07;1.30;;;1.15;;
34647;SDS011;20858;53.622;9.802;2022-09-23T00:05:33;0.95;;;0.93;;
34647;SDS011;20858;53.622;9.802;2022-09-23T00:07:59;1.58;;;1.48;;
34647;SDS011;20858;53.622;9.802;2022-09-23T00:10:25;1.20;;;1.10;;
34647;SDS011;20858;53.622;9.802;2022-09-23T00:12:53;2.05;;;1.17;;
34647;SDS011;20858;53.622;9.802;2022-09-23T00:15:19;1.75;;;1.30;;
34647;SDS011;20858;53.622;9.802;2022-09-23T00:17:44;4.97;;;1.45;;
34647;SDS011;20858;53.622;9.802;2022-09-23T00:20:11;1.45;;;1.10;;
34647;SDS011;20858;53.622;9.802;2022-09-23T00:22:37;1.98;;;1.20;;
34647;SDS011;20858;53.622;9.802;2022-09-23T00:25:03;1.23;;;0.88;;
34647;SDS011;20858;53.622;9.802;2022-09-23T00:27:33;1.25;;;1.15;;
34647;SDS011;20858;53.622;9.802;2022-09-23T00:29:59;1.65;;;0.93;;
34647;SDS011;20858;53.622;9.802;2022-09-23T00:32:25;1.17;;;1.00;;
34647;SDS011;20858;53.622;9.802;2022-09-23T00:34:51;1.42;;;1.00;;
34647;SDS011;20858;53.622;9.802;2022-09-23T00:37:16;3.17;;;1.10;;
34647;SDS011;20858;53.622;9.802;2022-09-23T00:39:42;3.95;;;1.52;;
34647;SDS011;20858;53.622;9.802;2022-09-23T00:42:12;4.18;;;1.15;;
34647;SDS011;20858;53.622;9.802;2022-09-23T00:47:15;1.40;;;1.03;;
34647;SDS011;20858;53.622;9.802;2022-09-23T00:49:42;0.90;;;0.80;;
34647;SDS011;20858;53.622;9.802;2022-09-23T00:52:14;1.67;;;0.90;;
34647;SDS011;20858;53.622;9.802;2022-09-23T00:54:43;3.35;;;1.40;;
34647;SDS011;20858;53.622;9.802;2022-09-23T00:57:13;1.52;;;1.02;;
34647;SDS011;20858;53.622;9.802;2022-09-23T00:59:41;1.15;;;0.85;;
34647;SDS011;20858;53.622;9.802;2022-09-23T01:02:10;1.40;;;1.00;;
34647;SDS011;20858;53.622;9.802;2022-09-23T01:04:38;1.27;;;1.02;;
34647;SDS011;20858;53.622;9.802;2022-09-23T01:07:04;1.00;;;1.00;;
34647;SDS011;20858;53.622;9.802;2022-09-23T01:09:32;1.73;;;1.48;;
34647;SDS011;20858;53.622;9.802;2022-09-23T01:14:54;2.75;;;0.88;;
34647;SDS011;20858;53.622;9.802;2022-09-23T01:34:32;1.48;;;1.38;;
34647;SDS011;20858;53.622;9.802;2022-09-23T01:37:09;0.65;;;0.65;;
34647;SDS011;20858;53.622;9.802;2022-09-23T01:39:44;1.25;;;0.93;;
34647;SDS011;20858;53.622;9.802;2022-09-23T01:42:26;1.02;;;1.00;;
34647;SDS011;20858;53.622;9.802;2022-09-23T01:45:09;2.10;;;1.10;;
34647;SDS011;20858;53.622;9.802;2022-09-23T01:47:40;2.28;;;0.93;;
34647;SDS011;20858;53.622;9.802;2022-09-23T01:50:18;1.10;;;0.80;;
34647;SDS011;20858;53.622;9.802;2022-09-23T01:53:11;1.02;;;0.90;;
34647;SDS011;20858;53.622;9.802;2022-09-23T01:55:43;1.40;;;1.20;;
34647;SDS011;20858;53.622;9.802;2022-09-23T02:00:50;1.10;;;0.90;;
34647;SDS011;20858;53.622;9.802;2022-09-23T02:03:22;1.38;;;1.00;;
34647;SDS011;20858;53.622;9.802;2022-09-23T02:05:58;1.23;;;1.02;;
34647;SDS011;20858;53.622;9.802;2022-09-23T02:08:34;1.33;;;1.08;;
34647;SDS011;20858;53.622;9.802;2022-09-23T02:11:07;1.63;;;0.90;;
34647;SDS011;20858;53.622;9.802;2022-09-23T02:16:26;2.75;;;1.05;;
34647;SDS011;20858;53.622;9.802;2022-09-23T02:19:08;1.05;;;0.95;;
34647;SDS011;20858;53.622;9.802;2022-09-23T02:21:39;1.20;;;1.10;;
34647;SDS011;20858;53.622;9.802;2022-09-23T02:26:36;0.90;;;0.90;;
34647;SDS011;20858;53.622;9.802;2022-09-23T02:31:52;1.05;;;0.77;;
34647;SDS011;20858;53.622;9.802;2022-09-23T02:43:04;5.70;;;0.88;;
34647;SDS011;20858;53.622;9.802;2022-09-23T02:45:23;0.95;;;0.82;;
34647;SDS011;20858;53.622;9.802;2022-09-23T02:47:50;2.25;;;1.15;;
34647;SDS011;20858;53.622;9.802;2022-09-23T02:50:20;1.50;;;1.10;;
34647;SDS011;20858;53.622;9.802;2022-09-23T02:52:46;0.90;;;0.90;;
34647;SDS011;20858;53.622;9.802;2022-09-23T02:55:14;1.35;;;1.20;;
34647;SDS011;20858;53.622;9.802;2022-09-23T02:57:41;2.90;;;1.10;;
34647;SDS011;20858;53.622;9.802;2022-09-23T03:00:09;7.00;;;1.40;;
34647;SDS011;20858;53.622;9.802;2022-09-23T03:05:36;2.50;;;1.30;;
34647;SDS011;20858;53.622;9.802;2022-09-23T03:08:10;0.80;;;0.80;;
34647;SDS011;20858;53.622;9.802;2022-09-23T03:16:23;1.00;;;0.95;;
34647;SDS011;20858;53.622;9.802;2022-09-23T03:22:00;1.38;;;0.70;;
34647;SDS011;20858;53.622;9.802;2022-09-23T03:24:33;0.93;;;0.88;;
34647;SDS011;20858;53.622;9.802;2022-09-23T03:27:08;1.48;;;0.82;;
34647;SDS011;20858;53.622;9.802;2022-09-23T03:29:42;1.98;;;1.08;;
34647;SDS011;20858;53.622;9.802;2022-09-23T03:32:13;2.67;;;0.45;;
34647;SDS011;20858;53.622;9.802;2022-09-23T03:34:42;1.52;;;1.27;;
34647;SDS011;20858;53.622;9.802;2022-09-23T03:37:16;0.80;;;0.80;;
34647;SDS011;20858;53.622;9.802;2022-09-23T03:39:58;1.02;;;0.98;;
34647;SDS011;20858;53.622;9.802;2022-09-23T03:42:32;1.15;;;1.05;;
34647;SDS011;20858;53.622;9.802;2022-09-23T03:44:59;0.73;;;0.73;;
34647;SDS011;20858;53.622;9.802;2022-09-23T03:47:33;0.88;;;0.85;;
34647;SDS011;20858;53.622;9.802;2022-09-23T03:49:59;1.33;;;0.68;;
34647;SDS011;20858;53.622;9.802;2022-09-23T03:52:24;0.52;;;0.52;;
34647;SDS011;20858;53.622;9.802;2022-09-23T03:54:53;0.68;;;0.68;;
34647;SDS011;20858;53.622;9.802;2022-09-23T03:57:19;0.70;;;0.70;;
34647;SDS011;20858;53.622;9.802;2022-09-23T03:59:51;0.80;;;0.70;;
34647;SDS011;20858;53.622;9.802;2022-09-23T04:02:17;0.63;;;0.60;;
34647;SDS011;20858;53.622;9.802;2022-09-23T04:04:44;1.90;;;1.30;;
34647;SDS011;20858;53.622;9.802;2022-09-23T04:07:10;1.90;;;1.10;;
34647;SDS011;20858;53.622;9.802;2022-09-23T04:09:38;1.27;;;1.10;;
34647;SDS011;20858;53.622;9.802;2022-09-23T04:12:04;1.30;;;0.90;;
34647;SDS011;20858;53.622;9.802;2022-09-23T04:14:31;1.42;;;0.90;;
34647;SDS011;20858;53.622;9.802;2022-09-23T04:16:56;1.05;;;0.75;;
34647;SDS011;20858;53.622;9.802;2022-09-23T04:19:22;1.08;;;0.98;;
34647;SDS011;20858;53.622;9.802;2022-09-23T04:21:52;0.90;;;0.77;;
34647;SDS011;20858;53.622;9.802;2022-09-23T04:24:20;1.00;;;0.88;;
34647;SDS011;20858;53.622;9.802;2022-09-23T04:26:48;1.10;;;0.98;;
34647;SDS011;20858;53.622;9.802;2022-09-23T04:29:15;0.80;;;0.80;;
34647;SDS011;20858;53.622;9.802;2022-09-23T04:31:40;1.95;;;1.02;;
34647;SDS011;20858;53.622;9.802;2022-09-23T04:34:10;1.67;;;1.27;;
34647;SDS011;20858;53.622;9.802;2022-09-23T04:36:36;1.00;;;0.90;;
34647;SDS011;20858;53.622;9.802;2022-09-23T04:39:02;1.77;;;0.95;;
34647;SDS011;20858;53.622;9.802;2022-09-23T04:41:29;0.90;;;0.70;;
34647;SDS011;20858;53.622;9.802;2022-09-23T04:43:55;1.35;;;1.05;;
34647;SDS011;20858;53.622;9.802;2022-09-23T04:46:21;1.17;;;0.73;;
34647;SDS011;20858;53.622;9.802;2022-09-23T04:48:47;1.60;;;0.90;;
34647;SDS011;20858;53.622;9.802;2022-09-23T04:51:14;1.10;;;1.00;;
34647;SDS011;20858;53.622;9.802;2022-09-23T04:53:42;1.70;;;1.00;;
34647;SDS011;20858;53.622;9.802;2022-09-23T04:56:10;3.60;;;1.10;;
34647;SDS011;20858;53.622;9.802;2022-09-23T04:58:59;1.08;;;0.93;;
34647;SDS011;20858;53.622;9.802;2022-09-23T05:01:26;1.05;;;0.95;;
34647;SDS011;20858;53.622;9.802;2022-09-23T05:03:57;0.85;;;0.52;;
34647;SDS011;20858;53.622;9.802;2022-09-23T05:06:29;1.17;;;1.02;;
34647;SDS011;20858;53.622;9.802;2022-09-23T05:08:56;1.30;;;1.15;;
34647;SDS011;20858;53.622;9.802;2022-09-23T05:11:25;0.47;;;0.47;;
34647;SDS011;20858;53.622;9.802;2022-09-23T05:13:56;1.17;;;1.08;;
34647;SDS011;20858;53.622;9.802;2022-09-23T05:16:26;1.15;;;0.80;;
34647;SDS011;20858;53.622;9.802;2022-09-23T05:18:52;3.67;;;0.63;;
34647;SDS011;20858;53.622;9.802;2022-09-23T05:21:19;1.55;;;0.95;;
34647;SDS011;20858;53.622;9.802;2022-09-23T05:23:48;1.20;;;1.08;;
34647;SDS011;20858;53.622;9.802;2022-09-23T05:26:19;0.97;;;0.73;;
34647;SDS011;20858;53.622;9.802;2022-09-23T05:28:46;1.35;;;1.02;;
34647;SDS011;20858;53.622;9.802;2022-09-23T05:31:12;0.85;;;0.80;;
34647;SDS011;20858;53.622;9.802;2022-09-23T05:33:40;1.15;;;1.05;;
34647;SDS011;20858;53.622;9.802;2022-09-23T05:36:10;0.73;;;0.60;;
34647;SDS011;20858;53.622;9.802;2022-09-23T05:38:36;1.95;;;1.02;;
34647;SDS011;20858;53.622;9.802;2022-09-23T05:41:03;0.80;;;0.80;;
34647;SDS011;20858;53.622;9.802;2022-09-23T05:43:31;1.75;;;1.00;;
34647;SDS011;20858;53.622;9.802;2022-09-23T05:48:44;1.45;;;1.27;;
34647;SDS011;20858;53.622;9.802;2022-09-23T05:51:13;2.00;;;1.40;;
34647;SDS011;20858;53.622;9.802;2022-09-23T05:53:40;1.88;;;1.10;;
34647;SDS011;20858;53.622;9.802;2022-09-23T05:56:08;3.15;;;1.38;;
34647;SDS011;20858;53.622;9.802;2022-09-23T05:58:34;8.23;;;1.80;;
34647;SDS011;20858;53.622;9.802;2022-09-23T06:01:00;4.40;;;1.45;;
34647;SDS011;20858;53.622;9.802;2022-09-23T06:03:25;1.90;;;1.60;;
34647;SDS011;20858;53.622;9.802;2022-09-23T06:05:51;3.03;;;1.92;;
34647;SDS011;20858;53.622;9.802;2022-09-23T06:08:20;7.97;;;2.10;;
34647;SDS011;20858;53.622;9.802;2022-09-23T06:10:46;1.88;;;1.65;;
34647;SDS011;20858;53.622;9.802;2022-09-23T06:13:12;1.65;;;1.55;;
34647;SDS011;20858;53.622;9.802;2022-09-23T06:15:37;3.83;;;1.48;;
34647;SDS011;20858;53.622;9.802;2022-09-23T06:18:03;3.63;;;1.80;;
34647;SDS011;20858;53.622;9.802;2022-09-23T06:20:30;2.63;;;1.73;;
34647;SDS011;20858;53.622;9.802;2022-09-23T06:23:01;5.20;;;2.33;;
34647;SDS011;20858;53.622;9.802;2022-09-23T06:25:32;5.00;;;1.90;;
34647;SDS011;20858;53.622;9.802;2022-09-23T06:28:02;2.67;;;2.00;;
34647;SDS011;20858;53.622;9.802;2022-09-23T06:30:28;1.55;;;1.45;;
34647;SDS011;20858;53.622;9.802;2022-09-23T06:32:54;1.83;;;1.73;;
34647;SDS011;20858;53.622;9.802;2022-09-23T06:35:24;1.75;;;1.65;;
34647;SDS011;20858;53.622;9.802;2022-09-23T06:37:51;5.55;;;2.05;;
34647;SDS011;20858;53.622;9.802;2022-09-23T06:40:18;5.22;;;3.15;;
34647;SDS011;20858;53.622;9.802;2022-09-23T06:42:46;15.02;;;5.68;;
34647;SDS011;20858;53.622;9.802;2022-09-23T06:45:12;10.07;;;5.13;;
34647;SDS011;20858;53.622;9.802;2022-09-23T06:47:39;17.02;;;5.32;;
34647;SDS011;20858;53.622;9.802;2022-09-23T06:50:08;8.18;;;4.20;;
34647;SDS011;20858;53.622;9.802;2022-09-23T06:52:38;26.08;;;5.07;;
34647;SDS011;20858;53.622;9.802;2022-09-23T06:55:04;24.75;;;7.20;;
34647;SDS011;20858;53.622;9.802;2022-09-23T06:57:30;16.95;;;6.25;;
34647;SDS011;20858;53.622;9.802;2022-09-23T06:59:56;11.10;;;5.85;;
34647;SDS011;20858;53.622;9.802;2022-09-23T07:02:25;6.30;;;4.28;;
34647;SDS011;20858;53.622;9.802;2022-09-23T07:04:52;12.45;;;5.18;;
34647;SDS011;20858;53.622;9.802;2022-09-23T07:07:21;14.52;;;5.07;;
34647;SDS011;20858;53.622;9.802;2022-09-23T07:09:50;10.00;;;4.63;;
34647;SDS011;20858;53.622;9.802;2022-09-23T07:12:19;7.57;;;4.25;;
34647;SDS011;20858;53.622;9.802;2022-09-23T07:14:44;11.15;;;5.00;;
34647;SDS011;20858;53.622;9.802;2022-09-23T07:17:10;5.50;;;4.20;;
34647;SDS011;20858;53.622;9.802;2022-09-23T07:19:37;19.15;;;5.40;;
34647;SDS011;20858;53.622;9.802;2022-09-23T07:22:05;13.45;;;6.15;;
34647;SDS011;20858;53.622;9.802;2022-09-23T07:24:31;16.05;;;5.75;;
34647;SDS011;20858;53.622;9.802;2022-09-23T07:26:58;9.82;;;6.05;;
34647;SDS011;20858;53.622;9.802;2022-09-23T07:29:23;15.35;;;5.65;;
34647;SDS011;20858;53.622;9.802;2022-09-23T07:31:48;21.27;;;7.18;;
34647;SDS011;20858;53.622;9.802;2022-09-23T07:34:14;13.50;;;5.95;;
34647;SDS011;20858;53.622;9.802;2022-09-23T07:36:42;23.02;;;5.65;;
34647;SDS011;20858;53.622;9.802;2022-09-23T07:39:10;12.20;;;4.88;;
34647;SDS011;20858;53.622;9.802;2022-09-23T07:41:36;7.10;;;4.43;;
34647;SDS011;20858;53.622;9.802;2022-09-23T07:44:02;14.13;;;5.00;;
34647;SDS011;20858;53.622;9.802;2022-09-23T07:46:30;5.00;;;4.10;;
34647;SDS011;20858;53.622;9.802;2022-09-23T07:48:57;5.28;;;2.67;;
34647;SDS011;20858;53.622;9.802;2022-09-23T07:51:30;8.32;;;3.60;;
34647;SDS011;20858;53.622;9.802;2022-09-23T07:53:57;20.77;;;3.85;;
34647;SDS011;20858;53.622;9.802;2022-09-23T07:56:24;9.70;;;3.83;;
34647;SDS011;20858;53.622;9.802;2022-09-23T07:58:50;4.15;;;3.65;;
34647;SDS011;20858;53.622;9.802;2022-09-23T08:01:38;5.40;;;3.10;;
34647;SDS011;20858;53.622;9.802;2022-09-23T08:04:06;5.85;;;4.10;;
34647;SDS011;20858;53.622;9.802;2022-09-23T08:09:06;66.03;;;39.75;;
34647;SDS011;20858;53.622;9.802;2022-09-23T08:11:32;31.42;;;25.02;;
34647;SDS011;20858;53.622;9.802;2022-09-23T08:13:57;23.88;;;19.52;;
34647;SDS011;20858;53.622;9.802;2022-09-23T08:16:22;23.50;;;16.80;;
34647;SDS011;20858;53.622;9.802;2022-09-23T08:18:48;25.35;;;18.35;;
34647;SDS011;20858;53.622;9.802;2022-09-23T08:21:17;23.08;;;14.60;;
34647;SDS011;20858;53.622;9.802;2022-09-23T08:23:46;11.32;;;9.73;;
34647;SDS011;20858;53.622;9.802;2022-09-23T08:26:11;16.70;;;10.50;;
34647;SDS011;20858;53.622;9.802;2022-09-23T08:28:37;15.40;;;10.43;;
34647;SDS011;20858;53.622;9.802;2022-09-23T08:31:03;16.15;;;8.43;;
34647;SDS011;20858;53.622;9.802;2022-09-23T08:33:32;12.70;;;7.32;;
34647;SDS011;20858;53.622;9.802;2022-09-23T08:36:00;12.70;;;7.25;;
34647;SDS011;20858;53.622;9.802;2022-09-23T08:38:26;8.43;;;6.65;;
34647;SDS011;20858;53.622;9.802;2022-09-23T08:41:00;22.67;;;16.67;;
34647;SDS011;20858;53.622;9.802;2022-09-23T08:43:30;7.88;;;5.63;;
34647;SDS011;20858;53.622;9.802;2022-09-23T08:46:02;11.35;;;6.47;;
34647;SDS011;20858;53.622;9.802;2022-09-23T08:48:33;14.00;;;7.25;;
34647;SDS011;20858;53.622;9.802;2022-09-23T08:53:33;16.92;;;7.07;;
34647;SDS011;20858;53.622;9.802;2022-09-23T08:56:06;7.60;;;5.70;;
34647;SDS011;20858;53.622;9.802;2022-09-23T08:58:54;12.15;;;5.85;;
34647;SDS011;20858;53.622;9.802;2022-09-23T09:01:48;7.93;;;4.57;;
34647;SDS011;20858;53.622;9.802;2022-09-23T09:04:20;18.08;;;5.63;;
34647;SDS011;20858;53.622;9.802;2022-09-23T09:07:02;12.25;;;4.30;;
34647;SDS011;20858;53.622;9.802;2022-09-23T09:09:45;5.60;;;4.00;;
34647;SDS011;20858;53.622;9.802;2022-09-23T09:12:49;6.45;;;3.38;;
34647;SDS011;20858;53.622;9.802;2022-09-23T09:15:18;5.15;;;3.10;;
34647;SDS011;20858;53.622;9.802;2022-09-23T09:20:22;5.43;;;2.90;;
34647;SDS011;20858;53.622;9.802;2022-09-23T09:22:54;2.63;;;2.42;;
34647;SDS011;20858;53.622;9.802;2022-09-23T09:28:54;7.25;;;2.38;;
34647;SDS011;20858;53.622;9.802;2022-09-23T09:31:04;3.75;;;2.60;;
34647;SDS011;20858;53.622;9.802;2022-09-23T09:34:13;4.53;;;3.10;;
34647;SDS011;20858;53.622;9.802;2022-09-23T09:36:39;4.43;;;2.53;;
34647;SDS011;20858;53.622;9.802;2022-09-23T09:39:12;5.80;;;2.58;;
34647;SDS011;20858;53.622;9.802;2022-09-23T09:41:43;5.13;;;2.67;;
34647;SDS011;20858;53.622;9.802;2022-09-23T09:44:21;10.27;;;3.20;;
34647;SDS011;20858;53.622;9.802;2022-09-23T09:47:05;17.83;;;3.28;;
34647;SDS011;20858;53.622;9.802;2022-09-23T09:49:58;14.82;;;4.07;;
34647;SDS011;20858;53.622;9.802;2022-09-23T09:52:31;14.57;;;2.90;;
34647;SDS011;20858;53.622;9.802;2022-09-23T10:02:53;11.48;;;4.00;;
34647;SDS011;20858;53.622;9.802;2022-09-23T10:05:47;3.65;;;2.85;;
34647;SDS011;20858;53.622;9.802;2022-09-23T10:08:23;2.20;;;2.00;;
34647;SDS011;20858;53.622;9.802;2022-09-23T10:13:37;20.38;;;3.42;;
34647;SDS011;20858;53.622;9.802;2022-09-23T10:16:02;8.68;;;2.63;;
34647;SDS011;20858;53.622;9.802;2022-09-23T10:18:34;5.68;;;2.85;;
34647;SDS011;20858;53.622;9.802;2022-09-23T10:21:11;3.63;;;2.53;;
34647;SDS011;20858;53.622;9.802;2022-09-23T10:23:41;2.47;;;1.88;;
34647;SDS011;20858;53.622;9.802;2022-09-23T10:26:12;6.63;;;2.53;;
34647;SDS011;20858;53.622;9.802;2022-09-23T10:28:54;2.75;;;2.00;;
34647;SDS011;20858;53.622;9.802;2022-09-23T10:31:26;6.63;;;2.75;;
34647;SDS011;20858;53.622;9.802;2022-09-23T10:33:58;8.48;;;2.90;;
34647;SDS011;20858;53.622;9.802;2022-09-23T10:36:25;8.57;;;3.63;;
34647;SDS011;20858;53.622;9.802;2022-09-23T10:38:56;8.20;;;3.15;;
34647;SDS011;20858;53.622;9.802;2022-09-23T10:42:04;10.38;;;2.97;;
34647;SDS011;20858;53.622;9.802;2022-09-23T10:51:12;7.15;;;3.85;;
34647;SDS011;20858;53.622;9.802;2022-09-23T10:58:52;11.90;;;4.78;;
34647;SDS011;20858;53.622;9.802;2022-09-23T11:06:42;8.40;;;3.85;;
34647;SDS011;20858;53.622;9.802;2022-09-23T11:18:02;13.50;;;3.53;;
34647;SDS011;20858;53.622;9.802;2022-09-23T11:26:19;8.77;;;2.42;;
34647;SDS011;20858;53.622;9.802;2022-09-23T11:37:30;6.25;;;4.85;;
34647;SDS011;20858;53.622;9.802;2022-09-23T11:40:12;4.65;;;3.90;;
34647;SDS011;20858;53.622;9.802;2022-09-23T11:48:34;5.18;;;4.65;;
34647;SDS011;20858;53.622;9.802;2022-09-23T11:51:05;5.88;;;3.33;;
34647;SDS011;20858;53.622;9.802;2022-09-23T11:59:07;8.82;;;4.03;;
34647;SDS011;20858;53.622;9.802;2022-09-23T12:01:47;8.48;;;4.63;;
34647;SDS011;20858;53.622;9.802;2022-09-23T12:04:30;6.90;;;4.15;;
34647;SDS011;20858;53.622;9.802;2022-09-23T12:17:55;4.57;;;3.28;;
34647;SDS011;20858;53.622;9.802;2022-09-23T12:20:41;5.35;;;3.60;;
34647;SDS011;20858;53.622;9.802;2022-09-23T12:26:20;3.75;;;3.25;;
34647;SDS011;20858;53.622;9.802;2022-09-23T12:28:49;7.03;;;4.07;;
34647;SDS011;20858;53.622;9.802;2022-09-23T12:31:19;4.20;;;2.88;;
34647;SDS011;20858;53.622;9.802;2022-09-23T12:33:54;3.70;;;2.47;;
34647;SDS011;20858;53.622;9.802;2022-09-23T12:36:29;2.40;;;2.20;;
34647;SDS011;20858;53.622;9.802;2022-09-23T12:39:02;3.10;;;2.78;;
34647;SDS011;20858;53.622;9.802;2022-09-23T12:41:37;4.45;;;3.13;;
34647;SDS011;20858;53.622;9.802;2022-09-23T12:46:45;4.83;;;4.10;;
34647;SDS011;20858;53.622;9.802;2022-09-23T12:49:36;2.75;;;2.55;;
34647;SDS011;20858;53.622;9.802;2022-09-23T12:54:48;5.47;;;2.78;;
34647;SDS011;20858;53.622;9.802;2022-09-23T13:02:42;3.92;;;3.60;;
34647;SDS011;20858;53.622;9.802;2022-09-23T13:07:54;2.85;;;2.65;;
34647;SDS011;20858;53.622;9.802;2022-09-23T13:10:37;4.47;;;2.28;;
34647;SDS011;20858;53.622;9.802;2022-09-23T13:13:14;2.58;;;2.15;;
34647;SDS011;20858;53.622;9.802;2022-09-23T13:16:25;2.15;;;1.95;;
34647;SDS011;20858;53.622;9.802;2022-09-23T13:19:05;3.53;;;1.92;;
34647;SDS011;20858;53.622;9.802;2022-09-23T13:22:09;2.03;;;1.80;;
34647;SDS011;20858;53.622;9.802;2022-09-23T13:24:45;5.03;;;2.10;;
34647;SDS011;20858;53.622;9.802;2022-09-23T13:27:17;3.47;;;1.73;;
34647;SDS011;20858;53.622;9.802;2022-09-23T13:29:49;2.83;;;1.73;;
34647;SDS011;20858;53.622;9.802;2022-09-23T13:32:21;1.27;;;1.17;;
34647;SDS011;20858;53.622;9.802;2022-09-23T13:34:57;1.50;;;1.40;;
34647;SDS011;20858;53.622;9.802;2022-09-23T13:37:29;3.08;;;2.05;;
34647;SDS011;20858;53.622;9.802;2022-09-23T13:40:08;2.22;;;1.30;;
34647;SDS011;20858;53.622;9.802;2022-09-23T13:42:40;2.50;;;1.95;;
34647;SDS011;20858;53.622;9.802;2022-09-23T13:45:12;2.90;;;1.70;;
34647;SDS011;20858;53.622;9.802;2022-09-23T13:47:46;2.58;;;1.65;;
34647;SDS011;20858;53.622;9.802;2022-09-23T13:50:15;6.45;;;1.50;;
34647;SDS011;20858;53.622;9.802;2022-09-23T13:52:44;1.88;;;1.52;;
34647;SDS011;20858;53.622;9.802;2022-09-23T13:57:59;1.90;;;1.50;;
34647;SDS011;20858;53.622;9.802;2022-09-23T14:00:33;1.58;;;1.42;;
34647;SDS011;20858;53.622;9.802;2022-09-23T14:03:01;13.90;;;1.85;;
34647;SDS011;20858;53.622;9.802;2022-09-23T14:05:30;1.75;;;1.65;;
34647;SDS011;20858;53.622;9.802;2022-09-23T14:07:59;1.40;;;1.30;;
34647;SDS011;20858;53.622;9.802;2022-09-23T14:10:25;1.48;;;1.38;;
34647;SDS011;20858;53.622;9.802;2022-09-23T14:12:52;1.77;;;1.20;;
34647;SDS011;20858;53.622;9.802;2022-09-23T14:15:19;4.15;;;1.45;;
34647;SDS011;20858;53.622;9.802;2022-09-23T14:17:49;1.83;;;1.70;;
34647;SDS011;20858;53.622;9.802;2022-09-23T14:20:25;2.78;;;1.67;;
34647;SDS011;20858;53.622;9.802;2022-09-23T14:23:08;1.92;;;1.77;;
34647;SDS011;20858;53.622;9.802;2022-09-23T14:25:41;1.27;;;1.17;;
34647;SDS011;20858;53.622;9.802;2022-09-23T14:28:20;1.92;;;1.42;;
34647;SDS011;20858;53.622;9.802;2022-09-23T14:30:48;2.00;;;1.80;;
34647;SDS011;20858;53.622;9.802;2022-09-23T14:33:16;1.88;;;1.63;;
34647;SDS011;20858;53.622;9.802;2022-09-23T14:35:47;2.55;;;1.42;;
34647;SDS011;20858;53.622;9.802;2022-09-23T14:38:26;1.75;;;1.08;;
34647;SDS011;20858;53.622;9.802;2022-09-23T14:41:32;5.97;;;1.90;;
34647;SDS011;20858;53.622;9.802;2022-09-23T14:44:01;2.17;;;1.25;;
34647;SDS011;20858;53.622;9.802;2022-09-23T14:46:31;1.27;;;1.15;;
34647;SDS011;20858;53.622;9.802;2022-09-23T14:49:17;13.40;;;1.50;;
34647;SDS011;20858;53.622;9.802;2022-09-23T14:51:46;1.73;;;1.55;;
34647;SDS011;20858;53.622;9.802;2022-09-23T14:54:22;2.80;;;1.60;;
34647;SDS011;20858;53.622;9.802;2022-09-23T14:57:02;2.00;;;1.50;;
34647;SDS011;20858;53.622;9.802;2022-09-23T14:59:50;1.00;;;0.90;;
34647;SDS011;20858;53.622;9.802;2022-09-23T15:02:30;1.40;;;1.27;;
34647;SDS011;20858;53.622;9.802;2022-09-23T15:07:35;1.10;;;0.90;;
34647;SDS011;20858;53.622;9.802;2022-09-23T15:10:02;1.23;;;1.08;;
34647;SDS011;20858;53.622;9.802;2022-09-23T15:12:33;1.02;;;0.93;;
34647;SDS011;20858;53.622;9.802;2022-09-23T15:15:00;3.42;;;1.08;;
34647;SDS011;20858;53.622;9.802;2022-09-23T15:22:30;2.63;;;0.98;;
34647;SDS011;20858;53.622;9.802;2022-09-23T15:27:41;1.38;;;1.00;;
34647;SDS011;20858;53.622;9.802;2022-09-23T15:30:19;4.28;;;1.55;;
34647;SDS011;20858;53.622;9.802;2022-09-23T15:32:46;0.88;;;0.82;;
34647;SDS011;20858;53.622;9.802;2022-09-23T15:35:30;1.85;;;1.00;;
34647;SDS011;20858;53.622;9.802;2022-09-23T15:37:57;1.45;;;0.88;;
34647;SDS011;20858;53.622;9.802;2022-09-23T15:40:35;2.00;;;0.98;;
34647;SDS011;20858;53.622;9.802;2022-09-23T15:43:05;1.33;;;1.15;;
34647;SDS011;20858;53.622;9.802;2022-09-23T15:45:42;2.10;;;1.10;;
34647;SDS011;20858;53.622;9.802;2022-09-23T15:48:11;1.20;;;1.10;;
34647;SDS011;20858;53.622;9.802;2022-09-23T15:50:38;3.35;;;1.15;;
34647;SDS011;20858;53.622;9.802;2022-09-23T15:53:05;1.85;;;0.95;;
34647;SDS011;20858;53.622;9.802;2022-09-23T15:55:31;1.67;;;1.27;;
34647;SDS011;20858;53.622;9.802;2022-09-23T15:57:57;2.70;;;1.23;;
34647;SDS011;20858;53.622;9.802;2022-09-23T16:00:25;1.55;;;1.23;;
34647;SDS011;20858;53.622;9.802;2022-09-23T16:02:52;1.25;;;1.15;;
34647;SDS011;20858;53.622;9.802;2022-09-23T16:07:46;1.20;;;1.10;;
34647;SDS011;20858;53.622;9.802;2022-09-23T16:10:12;1.17;;;0.80;;
34647;SDS011;20858;53.622;9.802;2022-09-23T16:12:39;4.43;;;1.23;;
34647;SDS011;20858;53.622;9.802;2022-09-23T16:15:09;4.07;;;1.05;;
34647;SDS011;20858;53.622;9.802;2022-09-23T16:17:37;1.10;;;0.95;;
34647;SDS011;20858;53.622;9.802;2022-09-23T16:20:02;4.00;;;1.05;;
34647;SDS011;20858;53.622;9.802;2022-09-23T16:22:28;8.82;;;1.15;;
34647;SDS011;20858;53.622;9.802;2022-09-23T16:24:53;3.92;;;1.25;;
34647;SDS011;20858;53.622;9.802;2022-09-23T16:27:23;1.45;;;1.00;;
34647;SDS011;20858;53.622;9.802;2022-09-23T16:29:50;2.40;;;1.45;;
34647;SDS011;20858;53.622;9.802;2022-09-23T16:32:15;6.18;;;1.77;;
34647;SDS011;20858;53.622;9.802;2022-09-23T16:34:40;2.47;;;2.00;;
34647;SDS011;20858;53.622;9.802;2022-09-23T16:37:08;1.73;;;1.63;;
34647;SDS011;20858;53.622;9.802;2022-09-23T16:39:41;1.83;;;1.52;;
34647;SDS011;20858;53.622;9.802;2022-09-23T16:42:09;2.00;;;1.77;;
34647;SDS011;20858;53.622;9.802;2022-09-23T16:44:37;4.95;;;2.72;;
34647;SDS011;20858;53.622;9.802;2022-09-23T16:47:05;2.00;;;1.58;;
34647;SDS011;20858;53.622;9.802;2022-09-23T16:49:31;2.88;;;1.50;;
34647;SDS011;20858;53.622;9.802;2022-09-23T16:51:58;1.33;;;1.23;;
34647;SDS011;20858;53.622;9.802;2022-09-23T16:54:26;19.90;;;17.95;;
34647;SDS011;20858;53.622;9.802;2022-09-23T16:56:52;7.00;;;2.65;;
34647;SDS011;20858;53.622;9.802;2022-09-23T16:59:19;2.22;;;1.88;;
34647;SDS011;20858;53.622;9.802;2022-09-23T17:01:45;4.18;;;2.75;;
34647;SDS011;20858;53.622;9.802;2022-09-23T17:04:28;3.90;;;1.70;;
34647;SDS011;20858;53.622;9.802;2022-09-23T17:06:55;2.35;;;1.73;;
34647;SDS011;20858;53.622;9.802;2022-09-23T17:09:26;22.45;;;2.38;;
34647;SDS011;20858;53.622;9.802;2022-09-23T17:12:15;4.27;;;2.83;;
34647;SDS011;20858;53.622;9.802;2022-09-23T17:14:43;15.00;;;2.88;;
34647;SDS011;20858;53.622;9.802;2022-09-23T17:17:13;5.90;;;3.13;;
34647;SDS011;20858;53.622;9.802;2022-09-23T17:19:39;4.72;;;4.15;;
34647;SDS011;20858;53.622;9.802;2022-09-23T17:22:05;7.13;;;3.75;;
34647;SDS011;20858;53.622;9.802;2022-09-23T17:24:30;7.13;;;3.55;;
34647;SDS011;20858;53.622;9.802;2022-09-23T17:26:58;9.18;;;8.25;;
34647;SDS011;20858;53.622;9.802;2022-09-23T17:29:23;5.70;;;2.72;;
34647;SDS011;20858;53.622;9.802;2022-09-23T17:31:50;9.25;;;2.47;;
34647;SDS011;20858;53.622;9.802;2022-09-23T17:34:16;5.50;;;3.80;;
34647;SDS011;20858;53.622;9.802;2022-09-23T17:36:44;5.38;;;2.53;;
34647;SDS011;20858;53.622;9.802;2022-09-23T17:39:12;5.43;;;2.78;;
34647;SDS011;20858;53.622;9.802;2022-09-23T17:41:38;5.25;;;2.92;;
34647;SDS011;20858;53.622;9.802;2022-09-23T17:44:08;4.65;;;2.60;;
34647;SDS011;20858;53.622;9.802;2022-09-23T17:46:34;8.88;;;3.08;;
34647;SDS011;20858;53.622;9.802;2022-09-23T17:49:00;7.90;;;2.55;;
34647;SDS011;20858;53.622;9.802;2022-09-23T17:51:28;6.05;;;2.92;;
34647;SDS011;20858;53.622;9.802;2022-09-23T17:53:53;5.82;;;3.10;;
34647;SDS011;20858;53.622;9.802;2022-09-23T17:56:20;3.03;;;2.63;;
34647;SDS011;20858;53.622;9.802;2022-09-23T17:58:50;4.15;;;2.95;;